Elmira, Michigan
Current Conditions -  °F | °C
As of 10:53 PM on Tuesday 27 Jan 2015 (Local Time) from KGLR Reporting Station
Clear Clear  
Wind Chill:   Ceiling: Unl
Heat Index:   Visibility: 10mi
Dew Point: -2°   Wind: 0mph
Humidity: 91%   Direction: NA
Pressure: 30.2"   Gusts: NA
Location:  45.06°N, 84.86°W
Report Text: KGLR 280353Z AUTO 00000KT 10SM CLR M18/M19 A3020 RMK AO2 SLP258 T11781189
Loading
Personal Weather Stations






























Interactive Weather Map New forecast layout! Learn more

10-Day Weather Forecast

Advertisements
Track Severe Weather on mobile